Etusivu
METAR-TAF:

METAR-TAF

Lentoasemat :

Ohrid, Makedonia

Leveyspiiri: 41-07N, Pituuspiiri: 020-48E, korkeus merenpinnasta: 760 m

Tämänhetkinen sää

Tämä raportti tehtiin 14 tuntia ja 4 minuuttia sitten, kello 15.00 UTC
Tuuli 8 kn luoteesta
Lämpötila -1°C
Kosteus 86%
Ilmanpaine 1008 hPa
Näkyvyys: 1000 m
Hajonneita pilviä 1000 ft:n korkeudessa
Pilvistä 3300 ft:n korkeudessa
lumisadetta

METAR: LWOH 011500Z 31008KT 1000 SN BKN010 OVC033 M01/M03 Q1008

Aika: 07:04 (05:04 UTC)

Sääennuste

Tämä raportti tehtiin 2 tuntia ja 34 minuuttia sitten, kello 02.30 UTC
Ennuste voimassa 02. päivästä klo 03 UTC - 03. päivään klo 03 UTC
Tuuli 8 kn luoteesta
Näkyvyys 10 km tai enemmän
Hajonneita pilviä 1500 ft:n korkeudessa
Pilvistä 3000 ft:n korkeudessa
Tulossa
02. päivästä klo 05 UTC - 02. päivään klo 07 UTC
Hajanaisia pilviä 2000 ft:n korkeudessa
Hajonneita pilviä 4000 ft:n korkeudessa

TAF: LWOH 020230Z 0203/0303 32008KT 9999 BKN015 OVC030 BECMG 0205/0207 SCT020 BKN040

Säähavainnot ja -ennusteet yli 4000 lentoasemalta (METAR- ja TAF-raportit).

Käytössä olevat sääasemat on merkitty karttaan keltaisilla ja punaisilla pisteillä.

Aseta hiiri pisteen päälle nähdäksesi sääaseman nimen.

Klikkaa sitten nähdäksesi säähavainnot ja -ennusteet.

Kartan vaihtaminen: klikkaa mustalla rastilla varustettuja vihreitä pisteitä, niin voit zoomata sisään; viivalla varustettua vihreää pistettä, niin voit zoomata ulos tai vihreitä nuolia, niin pääset viereisille kartoille.


METAR-TAF: